sensor_id;sensor_type;location;lat;lon;timestamp;P1;durP1;ratioP1;P2;durP2;ratioP2
24729;SDS011;12832;52.392;13.066;2023-06-19T00:01:22;0.80;;;0.80;;
24729;SDS011;12832;52.392;13.066;2023-06-19T00:03:49;0.80;;;0.80;;
24729;SDS011;12832;52.392;13.066;2023-06-19T00:06:15;1.05;;;1.05;;
24729;SDS011;12832;52.392;13.066;2023-06-19T00:08:42;0.80;;;0.80;;
24729;SDS011;12832;52.392;13.066;2023-06-19T00:11:08;0.82;;;0.82;;
24729;SDS011;12832;52.392;13.066;2023-06-19T00:13:34;0.80;;;0.80;;
24729;SDS011;12832;52.392;13.066;2023-06-19T00:16:00;0.93;;;0.93;;
24729;SDS011;12832;52.392;13.066;2023-06-19T00:18:27;0.90;;;0.90;;
24729;SDS011;12832;52.392;13.066;2023-06-19T00:20:54;0.70;;;0.70;;
24729;SDS011;12832;52.392;13.066;2023-06-19T00:23:22;0.90;;;0.90;;
24729;SDS011;12832;52.392;13.066;2023-06-19T00:25:48;1.10;;;1.10;;
24729;SDS011;12832;52.392;13.066;2023-06-19T00:28:14;1.13;;;1.02;;
24729;SDS011;12832;52.392;13.066;2023-06-19T00:30:45;0.95;;;0.95;;
24729;SDS011;12832;52.392;13.066;2023-06-19T00:33:11;1.00;;;1.00;;
24729;SDS011;12832;52.392;13.066;2023-06-19T00:35:38;0.90;;;0.90;;
24729;SDS011;12832;52.392;13.066;2023-06-19T00:38:05;0.93;;;0.93;;
24729;SDS011;12832;52.392;13.066;2023-06-19T00:40:31;1.00;;;1.00;;
24729;SDS011;12832;52.392;13.066;2023-06-19T00:42:59;0.90;;;0.90;;
24729;SDS011;12832;52.392;13.066;2023-06-19T00:45:26;1.08;;;1.08;;
24729;SDS011;12832;52.392;13.066;2023-06-19T00:47:53;1.35;;;1.27;;
24729;SDS011;12832;52.392;13.066;2023-06-19T00:50:21;0.93;;;0.93;;
24729;SDS011;12832;52.392;13.066;2023-06-19T00:52:48;0.85;;;0.85;;
24729;SDS011;12832;52.392;13.066;2023-06-19T00:55:15;0.80;;;0.80;;
24729;SDS011;12832;52.392;13.066;2023-06-19T00:57:42;1.00;;;1.00;;
24729;SDS011;12832;52.392;13.066;2023-06-19T01:00:09;1.00;;;1.00;;
24729;SDS011;12832;52.392;13.066;2023-06-19T01:02:38;1.00;;;1.00;;
24729;SDS011;12832;52.392;13.066;2023-06-19T01:05:05;1.00;;;1.00;;
24729;SDS011;12832;52.392;13.066;2023-06-19T01:07:34;1.00;;;1.00;;
24729;SDS011;12832;52.392;13.066;2023-06-19T01:10:19;1.17;;;1.10;;
24729;SDS011;12832;52.392;13.066;2023-06-19T01:12:56;0.98;;;0.98;;
24729;SDS011;12832;52.392;13.066;2023-06-19T01:15:26;0.90;;;0.90;;
24729;SDS011;12832;52.392;13.066;2023-06-19T01:17:53;1.10;;;1.10;;
24729;SDS011;12832;52.392;13.066;2023-06-19T01:20:22;0.85;;;0.85;;
24729;SDS011;12832;52.392;13.066;2023-06-19T01:22:49;1.20;;;1.10;;
24729;SDS011;12832;52.392;13.066;2023-06-19T01:25:15;0.82;;;0.82;;
24729;SDS011;12832;52.392;13.066;2023-06-19T01:27:41;0.90;;;0.90;;
24729;SDS011;12832;52.392;13.066;2023-06-19T01:30:08;1.00;;;1.00;;
24729;SDS011;12832;52.392;13.066;2023-06-19T01:32:46;1.10;;;1.10;;
24729;SDS011;12832;52.392;13.066;2023-06-19T01:35:26;1.00;;;1.00;;
24729;SDS011;12832;52.392;13.066;2023-06-19T01:37:55;0.98;;;0.98;;
24729;SDS011;12832;52.392;13.066;2023-06-19T01:40:22;1.00;;;1.00;;
24729;SDS011;12832;52.392;13.066;2023-06-19T01:42:52;0.95;;;0.95;;
24729;SDS011;12832;52.392;13.066;2023-06-19T01:45:20;0.80;;;0.80;;
24729;SDS011;12832;52.392;13.066;2023-06-19T01:47:46;1.00;;;1.00;;
24729;SDS011;12832;52.392;13.066;2023-06-19T01:50:13;0.80;;;0.80;;
24729;SDS011;12832;52.392;13.066;2023-06-19T01:52:40;0.90;;;0.90;;
24729;SDS011;12832;52.392;13.066;2023-06-19T01:55:07;1.00;;;1.00;;
24729;SDS011;12832;52.392;13.066;2023-06-19T01:57:34;0.90;;;0.90;;
24729;SDS011;12832;52.392;13.066;2023-06-19T02:00:02;1.00;;;1.00;;
24729;SDS011;12832;52.392;13.066;2023-06-19T02:02:31;1.20;;;1.10;;
24729;SDS011;12832;52.392;13.066;2023-06-19T02:04:57;1.10;;;1.10;;
24729;SDS011;12832;52.392;13.066;2023-06-19T02:07:23;1.13;;;1.13;;
24729;SDS011;12832;52.392;13.066;2023-06-19T02:09:50;0.80;;;0.80;;
24729;SDS011;12832;52.392;13.066;2023-06-19T02:12:16;0.90;;;0.90;;
24729;SDS011;12832;52.392;13.066;2023-06-19T02:14:42;1.10;;;1.10;;
24729;SDS011;12832;52.392;13.066;2023-06-19T02:17:08;0.93;;;0.93;;
24729;SDS011;12832;52.392;13.066;2023-06-19T02:19:35;1.08;;;1.08;;
24729;SDS011;12832;52.392;13.066;2023-06-19T02:22:01;1.00;;;1.00;;
24729;SDS011;12832;52.392;13.066;2023-06-19T02:24:27;1.05;;;1.05;;
24729;SDS011;12832;52.392;13.066;2023-06-19T02:26:53;1.10;;;1.10;;
24729;SDS011;12832;52.392;13.066;2023-06-19T02:29:20;1.10;;;1.10;;
24729;SDS011;12832;52.392;13.066;2023-06-19T02:31:46;1.15;;;1.15;;
24729;SDS011;12832;52.392;13.066;2023-06-19T02:34:12;1.25;;;1.20;;
24729;SDS011;12832;52.392;13.066;2023-06-19T02:36:39;1.00;;;1.00;;
24729;SDS011;12832;52.392;13.066;2023-06-19T02:39:05;1.20;;;1.20;;
24729;SDS011;12832;52.392;13.066;2023-06-19T02:41:32;1.30;;;1.20;;
24729;SDS011;12832;52.392;13.066;2023-06-19T02:43:58;1.08;;;1.08;;
24729;SDS011;12832;52.392;13.066;2023-06-19T02:46:25;1.13;;;1.13;;
24729;SDS011;12832;52.392;13.066;2023-06-19T02:48:51;1.10;;;1.10;;
24729;SDS011;12832;52.392;13.066;2023-06-19T02:51:17;1.25;;;1.25;;
24729;SDS011;12832;52.392;13.066;2023-06-19T02:53:44;1.30;;;1.30;;
24729;SDS011;12832;52.392;13.066;2023-06-19T02:56:13;1.25;;;1.25;;
24729;SDS011;12832;52.392;13.066;2023-06-19T02:58:39;1.23;;;1.20;;
24729;SDS011;12832;52.392;13.066;2023-06-19T03:01:05;1.58;;;1.48;;
24729;SDS011;12832;52.392;13.066;2023-06-19T03:03:34;1.63;;;1.52;;
24729;SDS011;12832;52.392;13.066;2023-06-19T03:06:04;1.50;;;1.40;;
24729;SDS011;12832;52.392;13.066;2023-06-19T03:08:34;1.27;;;1.27;;
24729;SDS011;12832;52.392;13.066;2023-06-19T03:11:01;1.20;;;1.20;;
24729;SDS011;12832;52.392;13.066;2023-06-19T03:13:33;1.40;;;1.30;;
24729;SDS011;12832;52.392;13.066;2023-06-19T03:16:09;1.58;;;1.48;;
24729;SDS011;12832;52.392;13.066;2023-06-19T03:18:35;1.10;;;1.10;;
24729;SDS011;12832;52.392;13.066;2023-06-19T03:21:01;1.15;;;1.15;;
24729;SDS011;12832;52.392;13.066;2023-06-19T03:23:27;1.65;;;1.55;;
24729;SDS011;12832;52.392;13.066;2023-06-19T03:25:54;1.48;;;1.38;;
24729;SDS011;12832;52.392;13.066;2023-06-19T03:28:20;1.70;;;1.60;;
24729;SDS011;12832;52.392;13.066;2023-06-19T03:30:46;1.60;;;1.50;;
24729;SDS011;12832;52.392;13.066;2023-06-19T03:33:12;1.50;;;1.40;;
24729;SDS011;12832;52.392;13.066;2023-06-19T03:35:38;1.42;;;1.38;;
24729;SDS011;12832;52.392;13.066;2023-06-19T03:38:07;1.70;;;1.60;;
24729;SDS011;12832;52.392;13.066;2023-06-19T03:40:33;1.50;;;1.40;;
24729;SDS011;12832;52.392;13.066;2023-06-19T03:42:59;1.80;;;1.70;;
24729;SDS011;12832;52.392;13.066;2023-06-19T03:45:25;1.73;;;1.63;;
24729;SDS011;12832;52.392;13.066;2023-06-19T03:47:52;1.75;;;1.65;;
24729;SDS011;12832;52.392;13.066;2023-06-19T03:50:19;1.50;;;1.40;;
24729;SDS011;12832;52.392;13.066;2023-06-19T03:52:48;1.50;;;1.40;;
24729;SDS011;12832;52.392;13.066;2023-06-19T03:55:14;1.70;;;1.60;;
24729;SDS011;12832;52.392;13.066;2023-06-19T03:57:40;1.60;;;1.50;;
24729;SDS011;12832;52.392;13.066;2023-06-19T04:00:06;1.67;;;1.58;;
24729;SDS011;12832;52.392;13.066;2023-06-19T04:02:33;1.85;;;1.75;;
24729;SDS011;12832;52.392;13.066;2023-06-19T04:05:00;1.73;;;1.63;;
24729;SDS011;12832;52.392;13.066;2023-06-19T04:07:27;1.80;;;1.70;;
24729;SDS011;12832;52.392;13.066;2023-06-19T04:09:54;2.00;;;1.90;;
24729;SDS011;12832;52.392;13.066;2023-06-19T04:12:20;1.60;;;1.50;;
24729;SDS011;12832;52.392;13.066;2023-06-19T04:14:46;1.70;;;1.60;;
24729;SDS011;12832;52.392;13.066;2023-06-19T04:17:13;1.60;;;1.50;;
24729;SDS011;12832;52.392;13.066;2023-06-19T04:19:39;1.65;;;1.55;;
24729;SDS011;12832;52.392;13.066;2023-06-19T04:22:05;1.60;;;1.50;;
24729;SDS011;12832;52.392;13.066;2023-06-19T04:24:32;1.70;;;1.60;;
24729;SDS011;12832;52.392;13.066;2023-06-19T04:26:58;1.85;;;1.75;;
24729;SDS011;12832;52.392;13.066;2023-06-19T04:29:24;1.88;;;1.77;;
24729;SDS011;12832;52.392;13.066;2023-06-19T04:31:50;1.80;;;1.70;;
24729;SDS011;12832;52.392;13.066;2023-06-19T04:34:17;1.70;;;1.60;;
24729;SDS011;12832;52.392;13.066;2023-06-19T04:36:47;1.60;;;1.50;;
24729;SDS011;12832;52.392;13.066;2023-06-19T04:39:13;1.73;;;1.63;;
24729;SDS011;12832;52.392;13.066;2023-06-19T04:41:42;1.70;;;1.60;;
24729;SDS011;12832;52.392;13.066;2023-06-19T04:44:12;1.80;;;1.70;;
24729;SDS011;12832;52.392;13.066;2023-06-19T04:46:38;1.70;;;1.60;;
24729;SDS011;12832;52.392;13.066;2023-06-19T04:49:05;1.60;;;1.50;;
24729;SDS011;12832;52.392;13.066;2023-06-19T04:51:31;1.80;;;1.70;;
24729;SDS011;12832;52.392;13.066;2023-06-19T04:53:58;1.90;;;1.80;;
24729;SDS011;12832;52.392;13.066;2023-06-19T04:56:25;1.65;;;1.55;;
24729;SDS011;12832;52.392;13.066;2023-06-19T04:58:51;1.70;;;1.60;;
24729;SDS011;12832;52.392;13.066;2023-06-19T05:01:20;1.85;;;1.75;;
24729;SDS011;12832;52.392;13.066;2023-06-19T05:03:53;1.95;;;1.85;;
24729;SDS011;12832;52.392;13.066;2023-06-19T05:06:21;2.17;;;2.08;;
24729;SDS011;12832;52.392;13.066;2023-06-19T05:08:50;2.58;;;2.47;;
24729;SDS011;12832;52.392;13.066;2023-06-19T05:15:25;4.55;;;4.25;;
24729;SDS011;12832;52.392;13.066;2023-06-19T05:17:52;4.07;;;3.85;;
24729;SDS011;12832;52.392;13.066;2023-06-19T05:20:18;4.22;;;3.92;;
24729;SDS011;12832;52.392;13.066;2023-06-19T05:22:45;5.93;;;5.00;;
24729;SDS011;12832;52.392;13.066;2023-06-19T05:25:11;5.78;;;5.28;;
24729;SDS011;12832;52.392;13.066;2023-06-19T05:27:38;6.35;;;5.75;;
24729;SDS011;12832;52.392;13.066;2023-06-19T05:30:04;7.07;;;6.10;;
24729;SDS011;12832;52.392;13.066;2023-06-19T05:32:31;6.32;;;5.82;;
24729;SDS011;12832;52.392;13.066;2023-06-19T05:34:57;6.88;;;6.28;;
24729;SDS011;12832;52.392;13.066;2023-06-19T05:37:24;7.82;;;7.13;;
24729;SDS011;12832;52.392;13.066;2023-06-19T05:39:50;7.50;;;6.88;;
24729;SDS011;12832;52.392;13.066;2023-06-19T05:42:16;7.43;;;6.78;;
24729;SDS011;12832;52.392;13.066;2023-06-19T05:44:42;7.15;;;6.35;;
24729;SDS011;12832;52.392;13.066;2023-06-19T05:47:09;8.88;;;7.05;;
24729;SDS011;12832;52.392;13.066;2023-06-19T05:49:35;7.32;;;6.63;;
24729;SDS011;12832;52.392;13.066;2023-06-19T05:52:01;7.75;;;7.15;;
24729;SDS011;12832;52.392;13.066;2023-06-19T05:54:27;7.97;;;7.28;;
24729;SDS011;12832;52.392;13.066;2023-06-19T05:56:54;7.68;;;7.03;;
24729;SDS011;12832;52.392;13.066;2023-06-19T05:59:20;7.57;;;6.88;;
24729;SDS011;12832;52.392;13.066;2023-06-19T06:01:47;8.90;;;8.15;;
24729;SDS011;12832;52.392;13.066;2023-06-19T06:04:13;8.65;;;7.95;;
24729;SDS011;12832;52.392;13.066;2023-06-19T06:06:39;7.10;;;6.50;;
24729;SDS011;12832;52.392;13.066;2023-06-19T06:09:06;6.40;;;5.90;;
24729;SDS011;12832;52.392;13.066;2023-06-19T06:11:36;6.95;;;6.35;;
24729;SDS011;12832;52.392;13.066;2023-06-19T06:14:03;6.28;;;5.78;;
24729;SDS011;12832;52.392;13.066;2023-06-19T06:16:29;7.68;;;6.85;;
24729;SDS011;12832;52.392;13.066;2023-06-19T06:18:55;7.40;;;6.70;;
24729;SDS011;12832;52.392;13.066;2023-06-19T06:21:21;7.05;;;6.53;;
24729;SDS011;12832;52.392;13.066;2023-06-19T06:23:48;6.75;;;6.20;;
24729;SDS011;12832;52.392;13.066;2023-06-19T06:26:14;7.60;;;6.82;;
24729;SDS011;12832;52.392;13.066;2023-06-19T06:28:40;9.15;;;7.13;;
24729;SDS011;12832;52.392;13.066;2023-06-19T06:31:06;7.85;;;7.22;;
24729;SDS011;12832;52.392;13.066;2023-06-19T06:33:33;7.45;;;6.88;;
24729;SDS011;12832;52.392;13.066;2023-06-19T06:35:59;7.22;;;6.72;;
24729;SDS011;12832;52.392;13.066;2023-06-19T06:38:25;7.38;;;6.78;;
24729;SDS011;12832;52.392;13.066;2023-06-19T06:40:52;7.55;;;6.95;;
24729;SDS011;12832;52.392;13.066;2023-06-19T06:43:18;7.57;;;6.90;;
24729;SDS011;12832;52.392;13.066;2023-06-19T06:45:44;7.40;;;6.90;;
24729;SDS011;12832;52.392;13.066;2023-06-19T06:48:11;8.13;;;7.53;;
24729;SDS011;12832;52.392;13.066;2023-06-19T06:50:37;8.07;;;7.47;;
24729;SDS011;12832;52.392;13.066;2023-06-19T06:53:03;8.13;;;7.43;;
24729;SDS011;12832;52.392;13.066;2023-06-19T06:55:30;7.72;;;7.18;;
24729;SDS011;12832;52.392;13.066;2023-06-19T06:57:56;7.72;;;7.03;;
24729;SDS011;12832;52.392;13.066;2023-06-19T07:00:22;7.25;;;6.75;;
24729;SDS011;12832;52.392;13.066;2023-06-19T07:02:49;7.65;;;7.05;;
24729;SDS011;12832;52.392;13.066;2023-06-19T07:05:16;8.18;;;7.55;;
24729;SDS011;12832;52.392;13.066;2023-06-19T07:07:43;7.07;;;5.95;;
24729;SDS011;12832;52.392;13.066;2023-06-19T07:10:09;7.47;;;6.97;;
24729;SDS011;12832;52.392;13.066;2023-06-19T07:12:43;8.10;;;7.50;;
24729;SDS011;12832;52.392;13.066;2023-06-19T07:15:10;7.70;;;7.13;;
24729;SDS011;12832;52.392;13.066;2023-06-19T07:17:37;7.72;;;7.13;;
24729;SDS011;12832;52.392;13.066;2023-06-19T07:20:04;8.80;;;7.95;;
24729;SDS011;12832;52.392;13.066;2023-06-19T07:22:31;9.07;;;8.23;;
24729;SDS011;12832;52.392;13.066;2023-06-19T07:24:58;7.68;;;6.97;;
24729;SDS011;12832;52.392;13.066;2023-06-19T07:27:24;7.90;;;7.30;;
24729;SDS011;12832;52.392;13.066;2023-06-19T07:29:53;8.02;;;7.22;;
24729;SDS011;12832;52.392;13.066;2023-06-19T07:32:19;7.85;;;7.05;;
24729;SDS011;12832;52.392;13.066;2023-06-19T07:34:46;7.90;;;7.30;;
24729;SDS011;12832;52.392;13.066;2023-06-19T07:37:12;8.15;;;7.55;;
24729;SDS011;12832;52.392;13.066;2023-06-19T07:39:44;7.95;;;7.35;;
24729;SDS011;12832;52.392;13.066;2023-06-19T07:42:11;7.38;;;6.88;;
24729;SDS011;12832;52.392;13.066;2023-06-19T07:44:38;6.90;;;6.28;;
24729;SDS011;12832;52.392;13.066;2023-06-19T07:47:05;7.65;;;6.93;;
24729;SDS011;12832;52.392;13.066;2023-06-19T07:49:31;7.05;;;6.35;;
24729;SDS011;12832;52.392;13.066;2023-06-19T07:51:58;7.15;;;6.63;;
24729;SDS011;12832;52.392;13.066;2023-06-19T07:54:24;7.28;;;6.78;;
24729;SDS011;12832;52.392;13.066;2023-06-19T07:56:50;7.70;;;7.10;;
24729;SDS011;12832;52.392;13.066;2023-06-19T07:59:16;7.45;;;6.78;;
24729;SDS011;12832;52.392;13.066;2023-06-19T08:01:43;7.15;;;6.53;;
24729;SDS011;12832;52.392;13.066;2023-06-19T08:04:10;7.43;;;6.90;;
24729;SDS011;12832;52.392;13.066;2023-06-19T08:06:36;7.35;;;6.82;;
24729;SDS011;12832;52.392;13.066;2023-06-19T08:09:02;7.55;;;6.68;;
24729;SDS011;12832;52.392;13.066;2023-06-19T08:11:29;7.93;;;7.22;;
24729;SDS011;12832;52.392;13.066;2023-06-19T08:13:55;8.23;;;7.43;;
24729;SDS011;12832;52.392;13.066;2023-06-19T08:16:21;8.27;;;7.57;;
24729;SDS011;12832;52.392;13.066;2023-06-19T08:18:50;7.38;;;6.70;;
24729;SDS011;12832;52.392;13.066;2023-06-19T08:21:16;8.48;;;7.68;;
24729;SDS011;12832;52.392;13.066;2023-06-19T08:23:42;6.70;;;6.13;;
24729;SDS011;12832;52.392;13.066;2023-06-19T08:26:09;8.13;;;7.43;;
24729;SDS011;12832;52.392;13.066;2023-06-19T08:28:37;7.55;;;7.05;;
24729;SDS011;12832;52.392;13.066;2023-06-19T08:31:03;7.70;;;7.00;;
24729;SDS011;12832;52.392;13.066;2023-06-19T08:33:29;7.45;;;6.95;;
24729;SDS011;12832;52.392;13.066;2023-06-19T08:35:55;10.25;;;8.10;;
24729;SDS011;12832;52.392;13.066;2023-06-19T08:38:22;7.60;;;7.05;;
24729;SDS011;12832;52.392;13.066;2023-06-19T08:40:48;7.85;;;7.25;;
24729;SDS011;12832;52.392;13.066;2023-06-19T08:43:14;8.20;;;7.57;;
24729;SDS011;12832;52.392;13.066;2023-06-19T08:45:40;7.50;;;6.90;;
24729;SDS011;12832;52.392;13.066;2023-06-19T08:48:07;8.35;;;7.65;;
24729;SDS011;12832;52.392;13.066;2023-06-19T08:50:38;7.95;;;7.35;;
24729;SDS011;12832;52.392;13.066;2023-06-19T08:53:05;7.43;;;6.75;;
24729;SDS011;12832;52.392;13.066;2023-06-19T08:55:31;7.63;;;6.75;;
24729;SDS011;12832;52.392;13.066;2023-06-19T08:57:57;6.90;;;6.40;;
24729;SDS011;12832;52.392;13.066;2023-06-19T09:00:27;7.43;;;6.88;;
24729;SDS011;12832;52.392;13.066;2023-06-19T09:02:59;7.00;;;6.50;;
24729;SDS011;12832;52.392;13.066;2023-06-19T09:05:40;8.63;;;7.72;;
24729;SDS011;12832;52.392;13.066;2023-06-19T09:08:15;8.43;;;7.65;;
24729;SDS011;12832;52.392;13.066;2023-06-19T09:10:41;8.10;;;7.50;;
24729;SDS011;12832;52.392;13.066;2023-06-19T09:13:08;7.93;;;7.22;;
24729;SDS011;12832;52.392;13.066;2023-06-19T09:15:35;8.52;;;7.88;;
24729;SDS011;12832;52.392;13.066;2023-06-19T09:18:09;9.23;;;8.52;;
24729;SDS011;12832;52.392;13.066;2023-06-19T09:20:39;8.55;;;7.85;;
24729;SDS011;12832;52.392;13.066;2023-06-19T09:23:11;7.20;;;6.70;;
24729;SDS011;12832;52.392;13.066;2023-06-19T09:25:47;8.65;;;7.85;;
24729;SDS011;12832;52.392;13.066;2023-06-19T09:28:18;9.07;;;8.40;;
24729;SDS011;12832;52.392;13.066;2023-06-19T09:30:53;9.23;;;8.52;;
24729;SDS011;12832;52.392;13.066;2023-06-19T09:33:27;9.18;;;8.32;;
24729;SDS011;12832;52.392;13.066;2023-06-19T09:35:56;9.00;;;8.30;;
24729;SDS011;12832;52.392;13.066;2023-06-19T09:38:26;7.45;;;6.95;;
24729;SDS011;12832;52.392;13.066;2023-06-19T09:40:55;8.80;;;8.00;;
24729;SDS011;12832;52.392;13.066;2023-06-19T09:43:33;8.05;;;7.45;;
24729;SDS011;12832;52.392;13.066;2023-06-19T09:46:02;7.47;;;6.82;;
24729;SDS011;12832;52.392;13.066;2023-06-19T09:48:30;8.70;;;7.90;;
24729;SDS011;12832;52.392;13.066;2023-06-19T09:51:10;7.80;;;7.10;;
24729;SDS011;12832;52.392;13.066;2023-06-19T09:53:45;8.38;;;7.70;;
24729;SDS011;12832;52.392;13.066;2023-06-19T09:56:13;8.45;;;7.78;;
24729;SDS011;12832;52.392;13.066;2023-06-19T09:58:41;8.35;;;7.60;;
24729;SDS011;12832;52.392;13.066;2023-06-19T10:01:09;8.90;;;8.15;;
24729;SDS011;12832;52.392;13.066;2023-06-19T10:03:37;8.63;;;7.93;;
24729;SDS011;12832;52.392;13.066;2023-06-19T10:06:04;8.73;;;7.95;;
24729;SDS011;12832;52.392;13.066;2023-06-19T10:08:31;8.40;;;7.70;;
24729;SDS011;12832;52.392;13.066;2023-06-19T10:11:03;9.48;;;8.73;;
24729;SDS011;12832;52.392;13.066;2023-06-19T10:13:31;8.57;;;7.90;;
24729;SDS011;12832;52.392;13.066;2023-06-19T10:15:59;8.63;;;8.02;;
24729;SDS011;12832;52.392;13.066;2023-06-19T10:18:26;9.00;;;8.30;;
24729;SDS011;12832;52.392;13.066;2023-06-19T10:20:53;8.45;;;7.65;;
24729;SDS011;12832;52.392;13.066;2023-06-19T10:23:21;9.05;;;8.13;;
24729;SDS011;12832;52.392;13.066;2023-06-19T10:25:57;9.32;;;8.38;;
24729;SDS011;12832;52.392;13.066;2023-06-19T10:28:32;9.77;;;9.07;;
24729;SDS011;12832;52.392;13.066;2023-06-19T10:31:01;9.07;;;8.35;;
24729;SDS011;12832;52.392;13.066;2023-06-19T10:33:35;8.70;;;8.00;;
24729;SDS011;12832;52.392;13.066;2023-06-19T10:36:18;9.85;;;9.02;;
24729;SDS011;12832;52.392;13.066;2023-06-19T10:38:47;7.80;;;7.25;;
24729;SDS011;12832;52.392;13.066;2023-06-19T10:41:17;8.52;;;7.93;;
24729;SDS011;12832;52.392;13.066;2023-06-19T10:46:32;8.98;;;8.27;;
24729;SDS011;12832;52.392;13.066;2023-06-19T10:49:00;8.75;;;8.05;;
24729;SDS011;12832;52.392;13.066;2023-06-19T10:51:30;9.07;;;8.48;;
24729;SDS011;12832;52.392;13.066;2023-06-19T10:53:57;8.73;;;8.10;;
24729;SDS011;12832;52.392;13.066;2023-06-19T10:56:23;9.05;;;8.35;;
24729;SDS011;12832;52.392;13.066;2023-06-19T10:59:03;8.05;;;7.35;;
24729;SDS011;12832;52.392;13.066;2023-06-19T11:01:32;9.18;;;8.48;;
24729;SDS011;12832;52.392;13.066;2023-06-19T11:04:01;8.77;;;7.93;;
24729;SDS011;12832;52.392;13.066;2023-06-19T11:06:37;9.05;;;8.35;;
24729;SDS011;12832;52.392;13.066;2023-06-19T11:09:05;9.57;;;8.85;;
24729;SDS011;12832;52.392;13.066;2023-06-19T11:11:43;9.38;;;8.68;;
24729;SDS011;12832;52.392;13.066;2023-06-19T11:14:11;9.57;;;8.80;;
24729;SDS011;12832;52.392;13.066;2023-06-19T11:16:40;9.45;;;8.75;;
24729;SDS011;12832;52.392;13.066;2023-06-19T11:19:08;8.90;;;8.00;;
24729;SDS011;12832;52.392;13.066;2023-06-19T11:21:40;8.73;;;8.05;;
24729;SDS011;12832;52.392;13.066;2023-06-19T11:24:11;8.38;;;7.78;;
24729;SDS011;12832;52.392;13.066;2023-06-19T11:26:41;7.40;;;6.90;;
24729;SDS011;12832;52.392;13.066;2023-06-19T11:31:42;8.75;;;8.00;;
24729;SDS011;12832;52.392;13.066;2023-06-19T11:34:08;8.55;;;7.95;;
24729;SDS011;12832;52.392;13.066;2023-06-19T11:36:38;8.80;;;8.18;;
24729;SDS011;12832;52.392;13.066;2023-06-19T11:39:10;8.52;;;7.82;;
24729;SDS011;12832;52.392;13.066;2023-06-19T11:41:39;7.68;;;7.07;;
24729;SDS011;12832;52.392;13.066;2023-06-19T11:44:06;8.75;;;8.15;;
24729;SDS011;12832;52.392;13.066;2023-06-19T11:46:37;9.18;;;8.48;;
24729;SDS011;12832;52.392;13.066;2023-06-19T11:49:13;7.28;;;6.68;;
24729;SDS011;12832;52.392;13.066;2023-06-19T11:51:40;8.73;;;8.02;;
24729;SDS011;12832;52.392;13.066;2023-06-19T11:54:07;9.18;;;8.48;;
24729;SDS011;12832;52.392;13.066;2023-06-19T11:56:35;7.53;;;6.95;;
24729;SDS011;12832;52.392;13.066;2023-06-19T11:59:02;8.50;;;7.82;;
24729;SDS011;12832;52.392;13.066;2023-06-19T12:01:31;7.72;;;7.22;;
24729;SDS011;12832;52.392;13.066;2023-06-19T12:03:59;8.52;;;7.93;;
24729;SDS011;12832;52.392;13.066;2023-06-19T12:06:26;7.72;;;7.20;;
24729;SDS011;12832;52.392;13.066;2023-06-19T12:08:53;8.38;;;7.78;;
24729;SDS011;12832;52.392;13.066;2023-06-19T12:11:20;8.98;;;8.27;;
24729;SDS011;12832;52.392;13.066;2023-06-19T12:13:47;7.88;;;7.32;;
24729;SDS011;12832;52.392;13.066;2023-06-19T12:16:14;7.38;;;6.88;;
24729;SDS011;12832;52.392;13.066;2023-06-19T12:18:41;7.70;;;7.00;;
24729;SDS011;12832;52.392;13.066;2023-06-19T12:21:07;7.30;;;6.80;;
24729;SDS011;12832;52.392;13.066;2023-06-19T12:23:46;7.57;;;6.97;;
24729;SDS011;12832;52.392;13.066;2023-06-19T12:26:12;8.23;;;7.63;;
24729;SDS011;12832;52.392;13.066;2023-06-19T12:28:39;7.78;;;7.18;;
24729;SDS011;12832;52.392;13.066;2023-06-19T12:31:05;8.57;;;7.88;;
24729;SDS011;12832;52.392;13.066;2023-06-19T12:33:32;7.32;;;6.72;;
24729;SDS011;12832;52.392;13.066;2023-06-19T12:35:59;8.20;;;7.47;;
24729;SDS011;12832;52.392;13.066;2023-06-19T12:38:26;8.57;;;7.88;;
24729;SDS011;12832;52.392;13.066;2023-06-19T12:40:52;7.57;;;6.97;;
24729;SDS011;12832;52.392;13.066;2023-06-19T12:43:18;8.13;;;6.60;;
24729;SDS011;12832;52.392;13.066;2023-06-19T12:45:45;7.30;;;6.70;;
24729;SDS011;12832;52.392;13.066;2023-06-19T12:48:11;7.32;;;6.82;;
24729;SDS011;12832;52.392;13.066;2023-06-19T12:50:38;6.43;;;5.93;;
24729;SDS011;12832;52.392;13.066;2023-06-19T12:53:04;6.38;;;5.97;;
24729;SDS011;12832;52.392;13.066;2023-06-19T12:55:30;7.20;;;6.60;;
24729;SDS011;12832;52.392;13.066;2023-06-19T12:57:56;6.50;;;6.00;;
24729;SDS011;12832;52.392;13.066;2023-06-19T13:00:23;7.80;;;7.13;;
24729;SDS011;12832;52.392;13.066;2023-06-19T13:02:50;8.00;;;7.30;;
24729;SDS011;12832;52.392;13.066;2023-06-19T13:05:16;7.85;;;7.25;;
24729;SDS011;12832;52.392;13.066;2023-06-19T13:07:43;7.80;;;7.15;;
24729;SDS011;12832;52.392;13.066;2023-06-19T13:10:09;6.95;;;6.45;;
24729;SDS011;12832;52.392;13.066;2023-06-19T13:12:36;8.13;;;7.43;;
24729;SDS011;12832;52.392;13.066;2023-06-19T13:15:02;7.95;;;7.35;;
24729;SDS011;12832;52.392;13.066;2023-06-19T13:17:28;7.32;;;6.78;;
24729;SDS011;12832;52.392;13.066;2023-06-19T13:19:54;8.23;;;7.63;;
24729;SDS011;12832;52.392;13.066;2023-06-19T13:22:21;7.68;;;7.07;;
24729;SDS011;12832;52.392;13.066;2023-06-19T13:24:50;6.85;;;6.35;;
24729;SDS011;12832;52.392;13.066;2023-06-19T13:27:17;7.22;;;6.72;;
24729;SDS011;12832;52.392;13.066;2023-06-19T13:29:43;7.90;;;7.30;;
24729;SDS011;12832;52.392;13.066;2023-06-19T13:32:09;7.60;;;7.00;;
24729;SDS011;12832;52.392;13.066;2023-06-19T13:34:35;7.43;;;6.82;;
24729;SDS011;12832;52.392;13.066;2023-06-19T13:37:02;8.98;;;8.23;;
24729;SDS011;12832;52.392;13.066;2023-06-19T13:39:29;8.48;;;7.88;;
24729;SDS011;12832;52.392;13.066;2023-06-19T13:41:55;8.30;;;7.55;;
24729;SDS011;12832;52.392;13.066;2023-06-19T13:44:22;8.48;;;7.70;;
24729;SDS011;12832;52.392;13.066;2023-06-19T13:46:48;7.78;;;7.18;;
24729;SDS011;12832;52.392;13.066;2023-06-19T13:49:14;8.05;;;7.32;;
24729;SDS011;12832;52.392;13.066;2023-06-19T13:51:41;8.48;;;7.88;;
24729;SDS011;12832;52.392;13.066;2023-06-19T13:54:09;7.82;;;7.22;;
24729;SDS011;12832;52.392;13.066;2023-06-19T13:56:38;7.90;;;7.20;;
24729;SDS011;12832;52.392;13.066;2023-06-19T13:59:05;8.38;;;7.78;;
24729;SDS011;12832;52.392;13.066;2023-06-19T14:01:31;8.82;;;8.13;;
24729;SDS011;12832;52.392;13.066;2023-06-19T14:03:58;8.07;;;7.30;;
24729;SDS011;12832;52.392;13.066;2023-06-19T14:06:25;8.15;;;7.55;;
24729;SDS011;12832;52.392;13.066;2023-06-19T14:08:51;7.20;;;6.65;;
24729;SDS011;12832;52.392;13.066;2023-06-19T14:11:18;8.25;;;7.55;;
24729;SDS011;12832;52.392;13.066;2023-06-19T14:13:44;7.22;;;6.72;;
24729;SDS011;12832;52.392;13.066;2023-06-19T14:16:10;7.80;;;7.20;;
24729;SDS011;12832;52.392;13.066;2023-06-19T14:18:37;7.78;;;7.07;;
24729;SDS011;12832;52.392;13.066;2023-06-19T14:21:03;8.75;;;7.95;;
24729;SDS011;12832;52.392;13.066;2023-06-19T14:23:29;8.20;;;7.50;;
24729;SDS011;12832;52.392;13.066;2023-06-19T14:25:56;7.88;;;7.28;;
24729;SDS011;12832;52.392;13.066;2023-06-19T14:28:22;7.70;;;7.10;;
24729;SDS011;12832;52.392;13.066;2023-06-19T14:30:49;8.13;;;7.50;;
24729;SDS011;12832;52.392;13.066;2023-06-19T14:33:15;7.90;;;7.20;;
24729;SDS011;12832;52.392;13.066;2023-06-19T14:35:42;7.82;;;7.22;;
24729;SDS011;12832;52.392;13.066;2023-06-19T14:38:14;8.85;;;8.10;;
24729;SDS011;12832;52.392;13.066;2023-06-19T14:40:41;7.70;;;7.00;;
24729;SDS011;12832;52.392;13.066;2023-06-19T14:43:07;7.28;;;6.78;;
24729;SDS011;12832;52.392;13.066;2023-06-19T14:45:36;7.57;;;7.00;;